sensor_id;sensor_type;location;lat;lon;timestamp;pressure;altitude;pressure_sealevel;temperature;humidity
46111;BME280;31849;55.992;37.252;2024-01-15T00:04:14;96957.72;;;-9.74;71.17
46111;BME280;31849;55.992;37.252;2024-01-15T00:09:18;96956.38;;;-9.64;71.24
46111;BME280;31849;55.992;37.252;2024-01-15T00:14:22;96914.19;;;-9.95;72.02
46111;BME280;31849;55.992;37.252;2024-01-15T00:19:27;96944.84;;;-9.59;71.40
46111;BME280;31849;55.992;37.252;2024-01-15T00:24:34;96937.03;;;-9.65;72.03
46111;BME280;31849;55.992;37.252;2024-01-15T00:29:38;96932.19;;;-9.60;71.69
46111;BME280;31849;55.992;37.252;2024-01-15T00:34:43;96933.25;;;-9.53;71.18
46111;BME280;31849;55.992;37.252;2024-01-15T00:39:47;96929.41;;;-9.44;71.19
46111;BME280;31849;55.992;37.252;2024-01-15T00:44:51;96930.31;;;-9.42;72.14
46111;BME280;31849;55.992;37.252;2024-01-15T00:49:58;96922.88;;;-9.39;71.40
46111;BME280;31849;55.992;37.252;2024-01-15T00:55:01;96914.63;;;-9.34;71.63
46111;BME280;31849;55.992;37.252;2024-01-15T01:00:06;96907.19;;;-9.31;72.44
46111;BME280;31849;55.992;37.252;2024-01-15T01:05:13;96905.94;;;-9.18;71.62
46111;BME280;31849;55.992;37.252;2024-01-15T01:10:17;96913.06;;;-9.07;71.40
46111;BME280;31849;55.992;37.252;2024-01-15T01:15:20;96897.94;;;-9.07;71.58
46111;BME280;31849;55.992;37.252;2024-01-15T01:20:26;96895.63;;;-9.00;71.25
46111;BME280;31849;55.992;37.252;2024-01-15T01:25:30;96894.81;;;-8.99;71.17
46111;BME280;31849;55.992;37.252;2024-01-15T01:30:33;96878.75;;;-9.03;71.00
46111;BME280;31849;55.992;37.252;2024-01-15T01:35:39;96887.09;;;-9.04;71.43
46111;BME280;31849;55.992;37.252;2024-01-15T01:40:43;96877.28;;;-8.96;71.72
46111;BME280;31849;55.992;37.252;2024-01-15T01:45:46;96870.97;;;-8.84;71.58
46111;BME280;31849;55.992;37.252;2024-01-15T01:50:52;96864.44;;;-8.78;71.31
46111;BME280;31849;55.992;37.252;2024-01-15T01:55:57;96858.13;;;-8.64;70.44
46111;BME280;31849;55.992;37.252;2024-01-15T02:01:01;96864.53;;;-8.75;72.11
46111;BME280;31849;55.992;37.252;2024-01-15T02:06:07;96851.63;;;-8.57;71.26
46111;BME280;31849;55.992;37.252;2024-01-15T02:11:11;96847.63;;;-8.51;70.67
46111;BME280;31849;55.992;37.252;2024-01-15T02:16:15;96840.84;;;-8.53;71.63
46111;BME280;31849;55.992;37.252;2024-01-15T02:21:21;96834.25;;;-8.48;71.89
46111;BME280;31849;55.992;37.252;2024-01-15T02:26:26;96839.44;;;-8.42;72.03
46111;BME280;31849;55.992;37.252;2024-01-15T02:31:30;96835.53;;;-8.32;71.84
46111;BME280;31849;55.992;37.252;2024-01-15T02:36:34;96840.00;;;-8.23;71.89
46111;BME280;31849;55.992;37.252;2024-01-15T02:41:39;96837.69;;;-8.16;71.23
46111;BME280;31849;55.992;37.252;2024-01-15T02:46:43;96836.22;;;-8.09;71.60
46111;BME280;31849;55.992;37.252;2024-01-15T02:51:46;96841.38;;;-8.04;71.44
46111;BME280;31849;55.992;37.252;2024-01-15T02:56:52;96839.16;;;-7.93;71.14
46111;BME280;31849;55.992;37.252;2024-01-15T03:01:55;96833.97;;;-7.98;72.42
46111;BME280;31849;55.992;37.252;2024-01-15T03:06:59;96830.25;;;-7.81;71.61
46111;BME280;31849;55.992;37.252;2024-01-15T03:12:05;96826.81;;;-7.83;72.02
46111;BME280;31849;55.992;37.252;2024-01-15T03:17:10;96816.09;;;-7.75;71.54
46111;BME280;31849;55.992;37.252;2024-01-15T03:22:14;96825.56;;;-7.67;72.29
46111;BME280;31849;55.992;37.252;2024-01-15T03:27:19;96779.56;;;-7.88;72.23
46111;BME280;31849;55.992;37.252;2024-01-15T03:32:23;96812.06;;;-7.69;72.82
46111;BME280;31849;55.992;37.252;2024-01-15T03:37:27;96812.22;;;-7.63;72.48
46111;BME280;31849;55.992;37.252;2024-01-15T03:42:32;96806.25;;;-7.65;72.20
46111;BME280;31849;55.992;37.252;2024-01-15T03:47:36;96801.38;;;-7.58;72.55
46111;BME280;31849;55.992;37.252;2024-01-15T03:52:39;96804.06;;;-7.52;71.93
46111;BME280;31849;55.992;37.252;2024-01-15T03:57:45;96798.31;;;-7.47;72.54
46111;BME280;31849;55.992;37.252;2024-01-15T04:02:49;96773.06;;;-7.47;71.92
46111;BME280;31849;55.992;37.252;2024-01-15T04:07:52;96797.94;;;-7.29;71.56
46111;BME280;31849;55.992;37.252;2024-01-15T04:12:57;96790.16;;;-7.36;71.88
46111;BME280;31849;55.992;37.252;2024-01-15T04:18:02;96798.75;;;-7.30;71.67
46111;BME280;31849;55.992;37.252;2024-01-15T04:23:06;96783.66;;;-7.27;72.83
46111;BME280;31849;55.992;37.252;2024-01-15T04:28:11;96781.88;;;-7.31;72.76
46111;BME280;31849;55.992;37.252;2024-01-15T04:33:15;96786.31;;;-7.22;72.95
46111;BME280;31849;55.992;37.252;2024-01-15T04:38:19;96754.13;;;-7.29;71.99
46111;BME280;31849;55.992;37.252;2024-01-15T04:43:24;96785.59;;;-7.16;73.33
46111;BME280;31849;55.992;37.252;2024-01-15T04:48:28;96782.25;;;-7.15;73.01
46111;BME280;31849;55.992;37.252;2024-01-15T04:53:32;96780.78;;;-7.05;72.24
46111;BME280;31849;55.992;37.252;2024-01-15T04:58:37;96768.84;;;-6.75;72.48
46111;BME280;31849;55.992;37.252;2024-01-15T05:03:41;96763.13;;;-6.26;72.30
46111;BME280;31849;55.992;37.252;2024-01-15T05:08:45;96769.59;;;-5.98;71.24
46111;BME280;31849;55.992;37.252;2024-01-15T05:13:51;96768.00;;;-5.90;70.59
46111;BME280;31849;55.992;37.252;2024-01-15T05:18:54;96764.94;;;-6.19;71.47
46111;BME280;31849;55.992;37.252;2024-01-15T05:23:58;96777.81;;;-6.49;71.85
46111;BME280;31849;55.992;37.252;2024-01-15T05:29:04;96766.53;;;-6.65;72.66
46111;BME280;31849;55.992;37.252;2024-01-15T05:34:07;96765.66;;;-6.67;72.63
46111;BME280;31849;55.992;37.252;2024-01-15T05:39:11;96764.75;;;-6.69;73.21
46111;BME280;31849;55.992;37.252;2024-01-15T05:44:16;96761.38;;;-6.70;73.82
46111;BME280;31849;55.992;37.252;2024-01-15T05:49:20;96765.50;;;-6.75;74.19
46111;BME280;31849;55.992;37.252;2024-01-15T05:54:24;96778.06;;;-6.78;75.29
46111;BME280;31849;55.992;37.252;2024-01-15T05:59:29;96770.59;;;-6.72;75.04
46111;BME280;31849;55.992;37.252;2024-01-15T06:04:36;96767.44;;;-6.63;74.49
46111;BME280;31849;55.992;37.252;2024-01-15T06:09:40;96770.97;;;-6.55;74.21
46111;BME280;31849;55.992;37.252;2024-01-15T06:14:45;96760.94;;;-6.50;74.69
46111;BME280;31849;55.992;37.252;2024-01-15T06:19:49;96773.69;;;-6.44;74.66
46111;BME280;31849;55.992;37.252;2024-01-15T06:24:54;96772.13;;;-6.39;74.45
46111;BME280;31849;55.992;37.252;2024-01-15T06:29:59;96771.53;;;-6.27;74.33
46111;BME280;31849;55.992;37.252;2024-01-15T06:35:06;96764.94;;;-6.19;74.43
46111;BME280;31849;55.992;37.252;2024-01-15T06:40:10;96758.38;;;-6.11;74.41
46111;BME280;31849;55.992;37.252;2024-01-15T06:45:15;96768.63;;;-6.03;74.03
46111;BME280;31849;55.992;37.252;2024-01-15T06:50:19;96774.56;;;-6.03;74.84
46111;BME280;31849;55.992;37.252;2024-01-15T06:55:22;96770.44;;;-5.96;74.92
46111;BME280;31849;55.992;37.252;2024-01-15T07:00:28;96770.66;;;-5.84;74.75
46111;BME280;31849;55.992;37.252;2024-01-15T07:05:32;96775.09;;;-5.70;74.31
46111;BME280;31849;55.992;37.252;2024-01-15T07:10:36;96764.34;;;-5.58;74.03
46111;BME280;31849;55.992;37.252;2024-01-15T07:15:41;96756.91;;;-5.51;74.08
46111;BME280;31849;55.992;37.252;2024-01-15T07:20:45;96762.31;;;-5.29;73.86
46111;BME280;31849;55.992;37.252;2024-01-15T07:25:49;96770.19;;;-5.12;73.89
46111;BME280;31849;55.992;37.252;2024-01-15T07:30:54;96766.03;;;-5.07;73.82
46111;BME280;31849;55.992;37.252;2024-01-15T07:35:58;96761.41;;;-4.78;73.88
46111;BME280;31849;55.992;37.252;2024-01-15T07:41:05;96766.22;;;-4.36;73.15
46111;BME280;31849;55.992;37.252;2024-01-15T07:46:10;96770.00;;;-4.02;72.15
46111;BME280;31849;55.992;37.252;2024-01-15T07:51:13;96762.84;;;-3.57;71.44
46111;BME280;31849;55.992;37.252;2024-01-15T07:56:17;96761.41;;;-3.30;71.35
46111;BME280;31849;55.992;37.252;2024-01-15T08:01:23;96757.28;;;-3.17;70.35
46111;BME280;31849;55.992;37.252;2024-01-15T08:06:26;96756.53;;;-3.06;69.79
46111;BME280;31849;55.992;37.252;2024-01-15T08:11:31;96757.56;;;-2.82;70.11
46111;BME280;31849;55.992;37.252;2024-01-15T08:16:36;96760.19;;;-2.67;68.93
46111;BME280;31849;55.992;37.252;2024-01-15T08:21:40;96758.50;;;-2.63;69.47
46111;BME280;31849;55.992;37.252;2024-01-15T08:26:44;96751.81;;;-2.44;68.43
46111;BME280;31849;55.992;37.252;2024-01-15T08:31:50;96759.47;;;-2.39;67.96
46111;BME280;31849;55.992;37.252;2024-01-15T08:36:54;96756.22;;;-2.15;67.73
46111;BME280;31849;55.992;37.252;2024-01-15T08:41:58;96755.31;;;-2.22;67.72
46111;BME280;31849;55.992;37.252;2024-01-15T08:47:03;96751.97;;;-2.12;66.79
46111;BME280;31849;55.992;37.252;2024-01-15T08:52:07;96772.44;;;-1.91;67.35
46111;BME280;31849;55.992;37.252;2024-01-15T08:57:11;96761.38;;;-1.97;66.52
46111;BME280;31849;55.992;37.252;2024-01-15T09:02:16;96760.41;;;-2.26;67.35
46111;BME280;31849;55.992;37.252;2024-01-15T09:07:20;96756.81;;;-2.62;68.21
46111;BME280;31849;55.992;37.252;2024-01-15T09:12:24;96750.00;;;-2.70;68.70
46111;BME280;31849;55.992;37.252;2024-01-15T09:17:29;96753.34;;;-2.74;68.76
46111;BME280;31849;55.992;37.252;2024-01-15T09:22:33;96750.53;;;-3.11;69.73
46111;BME280;31849;55.992;37.252;2024-01-15T09:27:37;96751.38;;;-3.12;69.53
46111;BME280;31849;55.992;37.252;2024-01-15T09:32:42;96755.56;;;-3.19;70.12
46111;BME280;31849;55.992;37.252;2024-01-15T09:37:46;96746.38;;;-3.06;69.34
46111;BME280;31849;55.992;37.252;2024-01-15T09:42:50;96748.03;;;-3.06;69.64
46111;BME280;31849;55.992;37.252;2024-01-15T09:47:56;96749.69;;;-3.13;70.14
46111;BME280;31849;55.992;37.252;2024-01-15T09:53:01;96746.38;;;-3.06;69.40
46111;BME280;31849;55.992;37.252;2024-01-15T09:58:06;96756.47;;;-3.10;70.28
46111;BME280;31849;55.992;37.252;2024-01-15T10:03:12;96760.69;;;-3.14;70.35
46111;BME280;31849;55.992;37.252;2024-01-15T10:08:16;96765.81;;;-3.09;70.69
46111;BME280;31849;55.992;37.252;2024-01-15T10:13:21;96775.13;;;-3.13;71.00
46111;BME280;31849;55.992;37.252;2024-01-15T10:18:27;96761.59;;;-3.07;71.37
46111;BME280;31849;55.992;37.252;2024-01-15T10:23:49;96773.41;;;-3.14;71.67
46111;BME280;31849;55.992;37.252;2024-01-15T10:28:53;96762.66;;;-2.77;69.73
46111;BME280;31849;55.992;37.252;2024-01-15T10:34:10;96769.38;;;-2.86;70.85
46111;BME280;31849;55.992;37.252;2024-01-15T10:39:15;96762.63;;;-2.82;70.63
46111;BME280;31849;55.992;37.252;2024-01-15T10:44:19;96770.19;;;-2.88;70.67
46111;BME280;31849;55.992;37.252;2024-01-15T10:49:25;96763.44;;;-2.89;70.94
46111;BME280;31849;55.992;37.252;2024-01-15T10:54:36;96764.22;;;-2.98;71.58
46111;BME280;31849;55.992;37.252;2024-01-15T10:59:40;96759.22;;;-2.84;71.44
46111;BME280;31849;55.992;37.252;2024-01-15T11:04:47;96760.94;;;-2.81;71.35
46111;BME280;31849;55.992;37.252;2024-01-15T11:09:51;96760.97;;;-2.74;70.99
46111;BME280;31849;55.992;37.252;2024-01-15T11:15:01;96764.44;;;-2.67;71.59
46111;BME280;31849;55.992;37.252;2024-01-15T11:20:09;96749.09;;;-2.76;71.59
46111;BME280;31849;55.992;37.252;2024-01-15T11:25:13;96746.56;;;-2.75;71.66
46111;BME280;31849;55.992;37.252;2024-01-15T11:30:17;96749.78;;;-3.01;73.79
46111;BME280;31849;55.992;37.252;2024-01-15T11:35:49;96755.72;;;-2.97;73.64
46111;BME280;31849;55.992;37.252;2024-01-15T11:40:53;96753.28;;;-2.85;72.95
46111;BME280;31849;55.992;37.252;2024-01-15T11:46:01;96736.34;;;-2.84;72.62
46111;BME280;31849;55.992;37.252;2024-01-15T11:51:08;96744.03;;;-2.73;72.31
46111;BME280;31849;55.992;37.252;2024-01-15T11:56:15;96745.72;;;-2.72;72.26
46111;BME280;31849;55.992;37.252;2024-01-15T12:01:20;96752.38;;;-2.93;73.88
46111;BME280;31849;55.992;37.252;2024-01-15T12:06:26;96748.19;;;-2.89;73.31
46111;BME280;31849;55.992;37.252;2024-01-15T12:11:31;96755.72;;;-2.98;73.63
46111;BME280;31849;55.992;37.252;2024-01-15T12:16:36;96732.81;;;-3.00;73.98
46111;BME280;31849;55.992;37.252;2024-01-15T12:21:41;96743.84;;;-3.01;73.77
46111;BME280;31849;55.992;37.252;2024-01-15T12:26:45;96739.66;;;-2.94;73.98
46111;BME280;31849;55.992;37.252;2024-01-15T12:31:49;96736.25;;;-2.98;73.76
46111;BME280;31849;55.992;37.252;2024-01-15T12:36:57;96739.63;;;-2.97;74.05
46111;BME280;31849;55.992;37.252;2024-01-15T12:42:01;96749.00;;;-2.93;73.58
46111;BME280;31849;55.992;37.252;2024-01-15T12:47:05;96740.53;;;-2.94;73.60
46111;BME280;31849;55.992;37.252;2024-01-15T12:52:10;96731.97;;;-3.04;74.71
46111;BME280;31849;55.992;37.252;2024-01-15T12:57:14;96737.88;;;-3.05;74.54
46111;BME280;31849;55.992;37.252;2024-01-15T13:02:18;96747.28;;;-2.94;73.91
46111;BME280;31849;55.992;37.252;2024-01-15T13:07:23;96742.97;;;-3.05;75.01
46111;BME280;31849;55.992;37.252;2024-01-15T13:12:27;96746.34;;;-3.07;75.02
46111;BME280;31849;55.992;37.252;2024-01-15T13:17:31;96757.34;;;-3.11;75.79
46111;BME280;31849;55.992;37.252;2024-01-15T13:22:37;96755.63;;;-3.09;75.36
46111;BME280;31849;55.992;37.252;2024-01-15T13:27:42;96759.88;;;-3.10;75.35
46111;BME280;31849;55.992;37.252;2024-01-15T13:32:46;96761.47;;;-3.21;76.21
46111;BME280;31849;55.992;37.252;2024-01-15T13:37:52;96768.34;;;-3.09;75.49
46111;BME280;31849;55.992;37.252;2024-01-15T13:42:55;96771.78;;;-3.06;75.04
46111;BME280;31849;55.992;37.252;2024-01-15T13:47:59;96768.34;;;-3.09;75.26
46111;BME280;31849;55.992;37.252;2024-01-15T13:53:05;96771.81;;;-3.03;75.39
46111;BME280;31849;55.992;37.252;2024-01-15T13:58:11;96772.66;;;-2.99;74.88
46111;BME280;31849;55.992;37.252;2024-01-15T14:03:15;96765.03;;;-3.02;75.39
46111;BME280;31849;55.992;37.252;2024-01-15T14:08:20;96762.50;;;-3.01;75.20
46111;BME280;31849;55.992;37.252;2024-01-15T14:13:24;96775.16;;;-3.05;75.32
46111;BME280;31849;55.992;37.252;2024-01-15T14:18:28;96768.38;;;-3.08;75.45
46111;BME280;31849;55.992;37.252;2024-01-15T14:23:37;96773.47;;;-3.05;75.33
46111;BME280;31849;55.992;37.252;2024-01-15T14:28:41;96759.94;;;-3.01;75.39
46111;BME280;31849;55.992;37.252;2024-01-15T14:33:44;96740.38;;;-3.09;75.75
46111;BME280;31849;55.992;37.252;2024-01-15T14:38:50;96749.75;;;-3.07;75.39
46111;BME280;31849;55.992;37.252;2024-01-15T14:43:53;96747.19;;;-3.07;75.68
46111;BME280;31849;55.992;37.252;2024-01-15T14:48:59;96747.13;;;-3.17;76.30
46111;BME280;31849;55.992;37.252;2024-01-15T14:54:05;96750.50;;;-3.15;76.26
46111;BME280;31849;55.992;37.252;2024-01-15T14:59:09;96730.19;;;-3.15;76.48
46111;BME280;31849;55.992;37.252;2024-01-15T15:04:12;96739.38;;;-3.28;76.96
46111;BME280;31849;55.992;37.252;2024-01-15T15:09:18;96744.47;;;-3.30;77.10
46111;BME280;31849;55.992;37.252;2024-01-15T15:14:22;96743.59;;;-3.32;77.51
46111;BME280;31849;55.992;37.252;2024-01-15T15:19:26;96741.94;;;-3.28;76.89
46111;BME280;31849;55.992;37.252;2024-01-15T15:24:31;96741.91;;;-3.30;77.58
46111;BME280;31849;55.992;37.252;2024-01-15T15:29:35;96742.69;;;-3.37;77.89
46111;BME280;31849;55.992;37.252;2024-01-15T15:34:39;96740.97;;;-3.43;78.35
46111;BME280;31849;55.992;37.252;2024-01-15T15:39:44;96748.66;;;-3.35;78.01
46111;BME280;31849;55.992;37.252;2024-01-15T15:44:48;96747.88;;;-3.29;77.54
46111;BME280;31849;55.992;37.252;2024-01-15T15:49:58;96741.09;;;-3.29;77.90
46111;BME280;31849;55.992;37.252;2024-01-15T15:55:05;96741.09;;;-3.27;78.36
46111;BME280;31849;55.992;37.252;2024-01-15T16:00:11;96737.75;;;-3.23;78.05
46111;BME280;31849;55.992;37.252;2024-01-15T16:05:15;96737.81;;;-3.12;77.25
46111;BME280;31849;55.992;37.252;2024-01-15T16:10:20;96728.44;;;-3.23;77.77
46111;BME280;31849;55.992;37.252;2024-01-15T16:15:24;96730.06;;;-3.32;79.09
46111;BME280;31849;55.992;37.252;2024-01-15T16:20:30;96725.09;;;-3.17;77.78
46111;BME280;31849;55.992;37.252;2024-01-15T16:25:55;96725.09;;;-3.17;78.06
46111;BME280;31849;55.992;37.252;2024-01-15T16:31:00;96726.81;;;-3.16;78.26
46111;BME280;31849;55.992;37.252;2024-01-15T16:36:09;96734.44;;;-3.14;77.93
46111;BME280;31849;55.992;37.252;2024-01-15T16:41:15;96724.19;;;-3.22;78.50
46111;BME280;31849;55.992;37.252;2024-01-15T16:46:18;96725.09;;;-3.15;78.07
46111;BME280;31849;55.992;37.252;2024-01-15T16:51:22;96721.69;;;-3.21;78.36
46111;BME280;31849;55.992;37.252;2024-01-15T16:56:27;96708.94;;;-3.22;78.56
46111;BME280;31849;55.992;37.252;2024-01-15T17:01:31;96716.63;;;-3.16;77.98
46111;BME280;31849;55.992;37.252;2024-01-15T17:06:35;96698.75;;;-3.27;78.81
46111;BME280;31849;55.992;37.252;2024-01-15T17:11:41;96710.63;;;-3.26;78.79
46111;BME280;31849;55.992;37.252;2024-01-15T17:16:45;96703.81;;;-3.28;79.14
46111;BME280;31849;55.992;37.252;2024-01-15T17:21:49;96705.44;;;-3.40;80.56
46111;BME280;31849;55.992;37.252;2024-01-15T17:26:56;96704.59;;;-3.37;80.08
46111;BME280;31849;55.992;37.252;2024-01-15T17:32:00;96704.69;;;-3.26;79.28
46111;BME280;31849;55.992;37.252;2024-01-15T17:37:04;96695.38;;;-3.24;79.42
46111;BME280;31849;55.992;37.252;2024-01-15T17:42:09;96697.97;;;-3.18;79.17
46111;BME280;31849;55.992;37.252;2024-01-15T17:47:13;96694.56;;;-3.22;79.78
46111;BME280;31849;55.992;37.252;2024-01-15T17:52:17;96693.72;;;-3.21;79.35
46111;BME280;31849;55.992;37.252;2024-01-15T17:57:24;96692.84;;;-3.21;79.57
46111;BME280;31849;55.992;37.252;2024-01-15T18:02:28;96687.72;;;-3.30;80.34
46111;BME280;31849;55.992;37.252;2024-01-15T18:07:33;96690.31;;;-3.21;79.71
46111;BME280;31849;55.992;37.252;2024-01-15T18:12:39;96694.53;;;-3.25;79.59
46111;BME280;31849;55.992;37.252;2024-01-15T18:17:43;96686.94;;;-3.20;79.93
46111;BME280;31849;55.992;37.252;2024-01-15T18:22:47;96677.63;;;-3.16;79.50
46111;BME280;31849;55.992;37.252;2024-01-15T18:27:54;96686.13;;;-3.19;79.53
46111;BME280;31849;55.992;37.252;2024-01-15T18:32:57;96680.97;;;-3.22;80.55
46111;BME280;31849;55.992;37.252;2024-01-15T18:38:02;96670.91;;;-3.14;80.11
46111;BME280;31849;55.992;37.252;2024-01-15T18:43:07;96669.13;;;-3.23;80.33
46111;BME280;31849;55.992;37.252;2024-01-15T18:48:11;96664.13;;;-3.12;79.89
46111;BME280;31849;55.992;37.252;2024-01-15T18:53:15;96675.91;;;-3.22;80.68
46111;BME280;31849;55.992;37.252;2024-01-15T18:58:20;96654.75;;;-3.16;79.87
46111;BME280;31849;55.992;37.252;2024-01-15T19:03:24;96647.16;;;-3.12;80.26
46111;BME280;31849;55.992;37.252;2024-01-15T19:08:28;96635.38;;;-3.05;79.83
46111;BME280;31849;55.992;37.252;2024-01-15T19:13:33;96645.50;;;-3.08;80.37
46111;BME280;31849;55.992;37.252;2024-01-15T19:18:37;96633.66;;;-3.05;79.84
46111;BME280;31849;55.992;37.252;2024-01-15T19:23:41;96634.44;;;-3.16;80.57
46111;BME280;31849;55.992;37.252;2024-01-15T19:28:47;96625.13;;;-3.17;80.52
46111;BME280;31849;55.992;37.252;2024-01-15T19:33:51;96629.44;;;-3.06;80.06
46111;BME280;31849;55.992;37.252;2024-01-15T19:38:54;96621.81;;;-3.07;79.80
46111;BME280;31849;55.992;37.252;2024-01-15T19:43:59;96603.91;;;-3.20;80.38
46111;BME280;31849;55.992;37.252;2024-01-15T19:49:03;96609.03;;;-3.13;80.69
46111;BME280;31849;55.992;37.252;2024-01-15T19:54:07;96606.56;;;-3.04;80.16
46111;BME280;31849;55.992;37.252;2024-01-15T19:59:12;96599.75;;;-3.08;80.45
46111;BME280;31849;55.992;37.252;2024-01-15T20:04:16;96603.97;;;-3.10;80.39
46111;BME280;31849;55.992;37.252;2024-01-15T20:09:20;96600.56;;;-3.15;80.92
46111;BME280;31849;55.992;37.252;2024-01-15T20:14:25;96593.81;;;-3.10;81.27
46111;BME280;31849;55.992;37.252;2024-01-15T20:19:30;96592.97;;;-3.06;80.77
46111;BME280;31849;55.992;37.252;2024-01-15T20:24:35;96598.88;;;-3.12;81.79
46111;BME280;31849;55.992;37.252;2024-01-15T20:29:40;96592.94;;;-3.17;81.77
46111;BME280;31849;55.992;37.252;2024-01-15T20:34:44;96587.91;;;-3.06;81.27
46111;BME280;31849;55.992;37.252;2024-01-15T20:39:47;96594.66;;;-3.11;81.34
46111;BME280;31849;55.992;37.252;2024-01-15T20:44:53;96596.38;;;-3.06;81.33
46111;BME280;31849;55.992;37.252;2024-01-15T20:49:56;96603.16;;;-3.05;81.18
46111;BME280;31849;55.992;37.252;2024-01-15T20:55:00;96596.44;;;-2.95;80.75
46111;BME280;31849;55.992;37.252;2024-01-15T21:00:07;96606.59;;;-2.95;80.64
46111;BME280;31849;55.992;37.252;2024-01-15T21:05:11;96604.94;;;-2.87;80.45
46111;BME280;31849;55.992;37.252;2024-01-15T21:10:15;96594.81;;;-2.82;80.44
46111;BME280;31849;55.992;37.252;2024-01-15T21:15:21;96588.84;;;-2.83;80.51
46111;BME280;31849;55.992;37.252;2024-01-15T21:20:25;96582.00;;;-2.97;81.02
46111;BME280;31849;55.992;37.252;2024-01-15T21:25:29;96587.97;;;-2.91;80.96
46111;BME280;31849;55.992;37.252;2024-01-15T21:30:35;96581.22;;;-2.83;80.99
46111;BME280;31849;55.992;37.252;2024-01-15T21:35:39;96590.56;;;-2.81;80.61
46111;BME280;31849;55.992;37.252;2024-01-15T21:40:43;96586.28;;;-2.89;81.30
46111;BME280;31849;55.992;37.252;2024-01-15T21:45:48;96593.06;;;-2.89;81.23
46111;BME280;31849;55.992;37.252;2024-01-15T21:50:52;96589.72;;;-2.82;81.15
46111;BME280;31849;55.992;37.252;2024-01-15T21:55:56;96589.72;;;-2.82;81.28
46111;BME280;31849;55.992;37.252;2024-01-15T22:01:01;96588.00;;;-2.88;81.69
46111;BME280;31849;55.992;37.252;2024-01-15T22:06:05;96583.78;;;-2.79;81.14
46111;BME280;31849;55.992;37.252;2024-01-15T22:11:09;96585.44;;;-2.89;81.85
46111;BME280;31849;55.992;37.252;2024-01-15T22:16:14;96579.50;;;-2.85;81.74
46111;BME280;31849;55.992;37.252;2024-01-15T22:21:18;96581.25;;;-2.78;81.22
46111;BME280;31849;55.992;37.252;2024-01-15T22:26:21;96585.47;;;-2.80;81.84
46111;BME280;31849;55.992;37.252;2024-01-15T22:31:27;96588.00;;;-2.86;82.21
46111;BME280;31849;55.992;37.252;2024-01-15T22:36:30;96578.69;;;-2.78;81.89
46111;BME280;31849;55.992;37.252;2024-01-15T22:41:35;96580.41;;;-2.74;81.78
46111;BME280;31849;55.992;37.252;2024-01-15T22:46:40;96578.69;;;-2.75;81.48
46111;BME280;31849;55.992;37.252;2024-01-15T22:51:44;96575.31;;;-2.80;82.05
46111;BME280;31849;55.992;37.252;2024-01-15T22:56:47;96570.22;;;-2.78;81.98
46111;BME280;31849;55.992;37.252;2024-01-15T23:01:53;96573.59;;;-2.78;81.92
46111;BME280;31849;55.992;37.252;2024-01-15T23:06:56;96575.34;;;-2.65;81.61
46111;BME280;31849;55.992;37.252;2024-01-15T23:12:00;96577.88;;;-2.65;81.15
46111;BME280;31849;55.992;37.252;2024-01-15T23:17:06;96580.44;;;-2.61;81.12
46111;BME280;31849;55.992;37.252;2024-01-15T23:22:09;96581.31;;;-2.59;80.90
46111;BME280;31849;55.992;37.252;2024-01-15T23:27:14;96586.41;;;-2.62;80.51
46111;BME280;31849;55.992;37.252;2024-01-15T23:32:19;96588.06;;;-2.65;80.63
46111;BME280;31849;55.992;37.252;2024-01-15T23:37:23;96588.06;;;-2.66;80.84
46111;BME280;31849;55.992;37.252;2024-01-15T23:42:27;96577.91;;;-2.61;80.32
46111;BME280;31849;55.992;37.252;2024-01-15T23:47:32;96576.16;;;-2.75;80.34
46111;BME280;31849;55.992;37.252;2024-01-15T23:52:36;96577.03;;;-2.73;80.74
46111;BME280;31849;55.992;37.252;2024-01-15T23:57:40;96587.22;;;-2.62;80.19
